sensor_id;sensor_type;location;lat;lon;timestamp;temperature;humidity
3281;DHT22;1652;51.318;6.202;2023-02-24T00:01:37;5.60;99.90
3281;DHT22;1652;51.318;6.202;2023-02-24T00:04:10;5.60;99.90
3281;DHT22;1652;51.318;6.202;2023-02-24T00:06:39;5.50;99.90
3281;DHT22;1652;51.318;6.202;2023-02-24T00:09:16;5.50;99.90
3281;DHT22;1652;51.318;6.202;2023-02-24T00:11:54;5.40;99.90
3281;DHT22;1652;51.318;6.202;2023-02-24T00:14:22;5.30;99.90
3281;DHT22;1652;51.318;6.202;2023-02-24T00:16:51;5.30;99.90
3281;DHT22;1652;51.318;6.202;2023-02-24T00:19:21;5.30;99.90
3281;DHT22;1652;51.318;6.202;2023-02-24T00:21:50;5.30;99.90
3281;DHT22;1652;51.318;6.202;2023-02-24T00:24:17;5.30;99.90
3281;DHT22;1652;51.318;6.202;2023-02-24T00:26:44;5.30;99.90
3281;DHT22;1652;51.318;6.202;2023-02-24T00:29:13;5.30;99.90
3281;DHT22;1652;51.318;6.202;2023-02-24T00:31:40;5.20;99.90
3281;DHT22;1652;51.318;6.202;2023-02-24T00:34:09;5.10;99.90
3281;DHT22;1652;51.318;6.202;2023-02-24T00:36:40;5.10;99.90
3281;DHT22;1652;51.318;6.202;2023-02-24T00:39:08;5.00;99.90
3281;DHT22;1652;51.318;6.202;2023-02-24T00:41:38;4.90;99.90
3281;DHT22;1652;51.318;6.202;2023-02-24T00:44:07;4.90;99.90
3281;DHT22;1652;51.318;6.202;2023-02-24T00:46:40;4.90;99.90
3281;DHT22;1652;51.318;6.202;2023-02-24T00:49:11;4.80;99.90
3281;DHT22;1652;51.318;6.202;2023-02-24T00:51:40;4.70;99.90
3281;DHT22;1652;51.318;6.202;2023-02-24T00:54:08;4.70;99.90
3281;DHT22;1652;51.318;6.202;2023-02-24T00:56:46;4.60;99.90
3281;DHT22;1652;51.318;6.202;2023-02-24T00:59:15;4.50;99.90
3281;DHT22;1652;51.318;6.202;2023-02-24T01:01:43;4.50;99.90
3281;DHT22;1652;51.318;6.202;2023-02-24T01:04:11;4.50;99.90
3281;DHT22;1652;51.318;6.202;2023-02-24T01:06:43;4.40;99.90
3281;DHT22;1652;51.318;6.202;2023-02-24T01:09:12;4.30;99.90
3281;DHT22;1652;51.318;6.202;2023-02-24T01:11:40;4.30;99.90
3281;DHT22;1652;51.318;6.202;2023-02-24T01:14:29;4.20;99.90
3281;DHT22;1652;51.318;6.202;2023-02-24T01:16:57;4.20;99.90
3281;DHT22;1652;51.318;6.202;2023-02-24T01:19:30;4.20;99.90
3281;DHT22;1652;51.318;6.202;2023-02-24T01:22:00;4.30;99.90
3281;DHT22;1652;51.318;6.202;2023-02-24T01:24:30;4.30;99.90
3281;DHT22;1652;51.318;6.202;2023-02-24T01:26:57;4.30;99.90
3281;DHT22;1652;51.318;6.202;2023-02-24T01:29:24;4.40;99.90
3281;DHT22;1652;51.318;6.202;2023-02-24T01:31:52;4.40;99.90
3281;DHT22;1652;51.318;6.202;2023-02-24T01:34:25;4.50;99.90
3281;DHT22;1652;51.318;6.202;2023-02-24T01:36:53;4.50;99.90
3281;DHT22;1652;51.318;6.202;2023-02-24T01:39:20;4.50;99.90
3281;DHT22;1652;51.318;6.202;2023-02-24T01:41:49;4.50;99.90
3281;DHT22;1652;51.318;6.202;2023-02-24T01:46:51;4.60;99.90
3281;DHT22;1652;51.318;6.202;2023-02-24T01:49:20;4.60;99.90
3281;DHT22;1652;51.318;6.202;2023-02-24T01:52:09;4.60;99.90
3281;DHT22;1652;51.318;6.202;2023-02-24T01:54:41;4.60;99.90
3281;DHT22;1652;51.318;6.202;2023-02-24T01:57:12;4.70;99.90
3281;DHT22;1652;51.318;6.202;2023-02-24T01:59:43;4.70;99.90
3281;DHT22;1652;51.318;6.202;2023-02-24T02:02:11;4.70;99.90
3281;DHT22;1652;51.318;6.202;2023-02-24T02:04:59;4.70;99.90
3281;DHT22;1652;51.318;6.202;2023-02-24T02:07:29;4.80;99.90
3281;DHT22;1652;51.318;6.202;2023-02-24T02:09:58;4.70;99.90
3281;DHT22;1652;51.318;6.202;2023-02-24T02:12:31;4.70;99.90
3281;DHT22;1652;51.318;6.202;2023-02-24T02:15:03;4.60;99.90
3281;DHT22;1652;51.318;6.202;2023-02-24T02:23:12;4.70;99.90
3281;DHT22;1652;51.318;6.202;2023-02-24T02:31:31;4.60;99.90
3281;DHT22;1652;51.318;6.202;2023-02-24T02:37:09;4.60;99.90
3281;DHT22;1652;51.318;6.202;2023-02-24T02:39:50;4.60;99.90
3281;DHT22;1652;51.318;6.202;2023-02-24T02:42:29;4.60;99.90
3281;DHT22;1652;51.318;6.202;2023-02-24T02:45:07;4.60;99.90
3281;DHT22;1652;51.318;6.202;2023-02-24T02:47:45;4.60;99.90
3281;DHT22;1652;51.318;6.202;2023-02-24T02:53:02;4.60;99.90
3281;DHT22;1652;51.318;6.202;2023-02-24T02:58:07;4.40;99.90
3281;DHT22;1652;51.318;6.202;2023-02-24T03:00:48;4.50;99.90
3281;DHT22;1652;51.318;6.202;2023-02-24T03:03:42;4.50;99.90
3281;DHT22;1652;51.318;6.202;2023-02-24T03:06:26;4.50;99.90
3281;DHT22;1652;51.318;6.202;2023-02-24T03:09:03;4.50;99.90
3281;DHT22;1652;51.318;6.202;2023-02-24T03:11:48;4.50;99.90
3281;DHT22;1652;51.318;6.202;2023-02-24T03:14:22;4.50;99.90
3281;DHT22;1652;51.318;6.202;2023-02-24T03:16:52;4.50;99.90
3281;DHT22;1652;51.318;6.202;2023-02-24T03:19:32;4.50;99.90
3281;DHT22;1652;51.318;6.202;2023-02-24T03:22:20;4.50;99.90
3281;DHT22;1652;51.318;6.202;2023-02-24T03:24:50;4.50;99.90
3281;DHT22;1652;51.318;6.202;2023-02-24T03:27:29;4.60;99.90
3281;DHT22;1652;51.318;6.202;2023-02-24T03:30:09;4.60;99.90
3281;DHT22;1652;51.318;6.202;2023-02-24T03:32:50;4.70;99.90
3281;DHT22;1652;51.318;6.202;2023-02-24T03:35:25;4.70;99.90
3281;DHT22;1652;51.318;6.202;2023-02-24T03:37:54;4.70;99.90
3281;DHT22;1652;51.318;6.202;2023-02-24T03:40:23;4.60;99.90
3281;DHT22;1652;51.318;6.202;2023-02-24T03:43:16;4.60;99.90
3281;DHT22;1652;51.318;6.202;2023-02-24T03:45:45;4.70;99.90
3281;DHT22;1652;51.318;6.202;2023-02-24T03:48:12;4.70;99.90
3281;DHT22;1652;51.318;6.202;2023-02-24T03:50:40;4.70;99.90
3281;DHT22;1652;51.318;6.202;2023-02-24T03:56:25;4.60;99.90
3281;DHT22;1652;51.318;6.202;2023-02-24T04:01:53;4.60;99.90
3281;DHT22;1652;51.318;6.202;2023-02-24T04:04:35;4.60;99.90
3281;DHT22;1652;51.318;6.202;2023-02-24T04:07:16;4.70;99.90
3281;DHT22;1652;51.318;6.202;2023-02-24T04:09:57;4.70;99.90
3281;DHT22;1652;51.318;6.202;2023-02-24T04:12:33;4.70;99.90
3281;DHT22;1652;51.318;6.202;2023-02-24T04:15:25;4.70;99.90
3281;DHT22;1652;51.318;6.202;2023-02-24T04:18:06;4.70;99.90
3281;DHT22;1652;51.318;6.202;2023-02-24T04:20:35;4.70;99.90
3281;DHT22;1652;51.318;6.202;2023-02-24T04:23:10;4.60;99.90
3281;DHT22;1652;51.318;6.202;2023-02-24T04:25:39;4.70;99.90
3281;DHT22;1652;51.318;6.202;2023-02-24T04:28:08;4.80;99.90
3281;DHT22;1652;51.318;6.202;2023-02-24T04:30:40;4.70;99.90
3281;DHT22;1652;51.318;6.202;2023-02-24T04:33:08;4.80;99.90
3281;DHT22;1652;51.318;6.202;2023-02-24T04:35:36;4.70;99.90
3281;DHT22;1652;51.318;6.202;2023-02-24T04:38:03;4.70;99.90
3281;DHT22;1652;51.318;6.202;2023-02-24T04:40:30;4.70;99.90
3281;DHT22;1652;51.318;6.202;2023-02-24T04:42:58;4.70;99.90
3281;DHT22;1652;51.318;6.202;2023-02-24T04:45:27;4.70;99.90
3281;DHT22;1652;51.318;6.202;2023-02-24T04:47:56;4.70;99.90
3281;DHT22;1652;51.318;6.202;2023-02-24T04:50:36;4.70;99.90
3281;DHT22;1652;51.318;6.202;2023-02-24T04:55:36;4.70;99.90
3281;DHT22;1652;51.318;6.202;2023-02-24T04:58:15;4.80;99.90
3281;DHT22;1652;51.318;6.202;2023-02-24T05:00:49;4.70;99.90
3281;DHT22;1652;51.318;6.202;2023-02-24T05:03:20;4.70;99.90
3281;DHT22;1652;51.318;6.202;2023-02-24T05:05:56;4.70;99.90
3281;DHT22;1652;51.318;6.202;2023-02-24T05:08:25;4.80;99.90
3281;DHT22;1652;51.318;6.202;2023-02-24T05:10:53;4.80;99.90
3281;DHT22;1652;51.318;6.202;2023-02-24T05:13:24;4.80;99.90
3281;DHT22;1652;51.318;6.202;2023-02-24T05:15:56;4.80;99.90
3281;DHT22;1652;51.318;6.202;2023-02-24T05:18:24;4.80;99.90
3281;DHT22;1652;51.318;6.202;2023-02-24T05:20:53;4.70;99.90
3281;DHT22;1652;51.318;6.202;2023-02-24T05:23:44;4.80;99.90
3281;DHT22;1652;51.318;6.202;2023-02-24T05:26:18;4.70;99.90
3281;DHT22;1652;51.318;6.202;2023-02-24T05:28:48;4.70;99.90
3281;DHT22;1652;51.318;6.202;2023-02-24T05:31:20;4.70;99.90
3281;DHT22;1652;51.318;6.202;2023-02-24T05:33:52;4.70;99.90
3281;DHT22;1652;51.318;6.202;2023-02-24T05:36:25;4.70;99.90
3281;DHT22;1652;51.318;6.202;2023-02-24T05:38:54;4.70;99.90
3281;DHT22;1652;51.318;6.202;2023-02-24T05:41:25;4.70;99.90
3281;DHT22;1652;51.318;6.202;2023-02-24T05:43:59;4.70;99.90
3281;DHT22;1652;51.318;6.202;2023-02-24T05:46:28;4.60;99.90
3281;DHT22;1652;51.318;6.202;2023-02-24T05:49:00;4.70;99.90
3281;DHT22;1652;51.318;6.202;2023-02-24T05:51:33;4.70;99.90
3281;DHT22;1652;51.318;6.202;2023-02-24T05:54:06;4.70;99.90
3281;DHT22;1652;51.318;6.202;2023-02-24T05:56:35;4.70;99.90
3281;DHT22;1652;51.318;6.202;2023-02-24T05:59:04;4.70;99.90
3281;DHT22;1652;51.318;6.202;2023-02-24T06:01:39;4.70;99.90
3281;DHT22;1652;51.318;6.202;2023-02-24T06:04:11;4.70;99.90
3281;DHT22;1652;51.318;6.202;2023-02-24T06:06:47;4.70;99.90
3281;DHT22;1652;51.318;6.202;2023-02-24T06:09:19;4.70;99.90
3281;DHT22;1652;51.318;6.202;2023-02-24T06:11:48;4.70;99.90
3281;DHT22;1652;51.318;6.202;2023-02-24T06:14:16;4.70;99.90
3281;DHT22;1652;51.318;6.202;2023-02-24T06:16:42;4.70;99.90
3281;DHT22;1652;51.318;6.202;2023-02-24T06:19:11;4.70;99.90
3281;DHT22;1652;51.318;6.202;2023-02-24T06:21:40;4.70;99.90
3281;DHT22;1652;51.318;6.202;2023-02-24T06:24:13;4.80;99.90
3281;DHT22;1652;51.318;6.202;2023-02-24T06:26:41;4.70;99.90
3281;DHT22;1652;51.318;6.202;2023-02-24T06:29:15;4.70;99.90
3281;DHT22;1652;51.318;6.202;2023-02-24T06:31:43;4.70;99.90
3281;DHT22;1652;51.318;6.202;2023-02-24T06:34:11;4.70;99.90
3281;DHT22;1652;51.318;6.202;2023-02-24T06:36:39;4.70;99.90
3281;DHT22;1652;51.318;6.202;2023-02-24T06:39:08;4.60;99.90
3281;DHT22;1652;51.318;6.202;2023-02-24T06:41:39;4.50;99.90
3281;DHT22;1652;51.318;6.202;2023-02-24T06:44:06;4.40;99.90
3281;DHT22;1652;51.318;6.202;2023-02-24T06:46:35;4.40;99.90
3281;DHT22;1652;51.318;6.202;2023-02-24T06:49:02;4.50;99.90
3281;DHT22;1652;51.318;6.202;2023-02-24T06:51:29;4.40;99.90
3281;DHT22;1652;51.318;6.202;2023-02-24T06:53:56;4.40;99.90
3281;DHT22;1652;51.318;6.202;2023-02-24T06:56:26;4.40;99.90
3281;DHT22;1652;51.318;6.202;2023-02-24T06:58:54;4.60;99.90
3281;DHT22;1652;51.318;6.202;2023-02-24T07:01:24;4.60;99.90
3281;DHT22;1652;51.318;6.202;2023-02-24T07:03:52;4.60;99.90
3281;DHT22;1652;51.318;6.202;2023-02-24T07:06:48;4.50;99.90
3281;DHT22;1652;51.318;6.202;2023-02-24T07:09:21;4.50;99.90
3281;DHT22;1652;51.318;6.202;2023-02-24T07:11:49;4.50;99.90
3281;DHT22;1652;51.318;6.202;2023-02-24T07:14:20;4.60;99.90
3281;DHT22;1652;51.318;6.202;2023-02-24T07:16:48;4.70;99.90
3281;DHT22;1652;51.318;6.202;2023-02-24T07:19:23;4.60;99.90
3281;DHT22;1652;51.318;6.202;2023-02-24T07:21:53;4.70;99.90
3281;DHT22;1652;51.318;6.202;2023-02-24T07:24:27;4.70;99.90
3281;DHT22;1652;51.318;6.202;2023-02-24T07:27:14;4.80;99.90
3281;DHT22;1652;51.318;6.202;2023-02-24T07:29:51;4.90;99.90
3281;DHT22;1652;51.318;6.202;2023-02-24T07:32:20;4.90;99.90
3281;DHT22;1652;51.318;6.202;2023-02-24T07:34:51;5.00;99.90
3281;DHT22;1652;51.318;6.202;2023-02-24T07:37:18;5.00;99.90
3281;DHT22;1652;51.318;6.202;2023-02-24T07:39:46;5.10;99.90
3281;DHT22;1652;51.318;6.202;2023-02-24T07:42:12;5.20;99.90
3281;DHT22;1652;51.318;6.202;2023-02-24T07:44:39;5.20;99.90
3281;DHT22;1652;51.318;6.202;2023-02-24T07:47:06;5.10;99.90
3281;DHT22;1652;51.318;6.202;2023-02-24T07:49:34;5.20;99.90
3281;DHT22;1652;51.318;6.202;2023-02-24T07:52:01;5.10;99.90
3281;DHT22;1652;51.318;6.202;2023-02-24T07:54:28;5.10;99.90
3281;DHT22;1652;51.318;6.202;2023-02-24T07:56:57;5.00;99.90
3281;DHT22;1652;51.318;6.202;2023-02-24T07:59:26;5.10;99.90
3281;DHT22;1652;51.318;6.202;2023-02-24T08:01:53;5.00;99.90
3281;DHT22;1652;51.318;6.202;2023-02-24T08:04:26;5.00;99.90
3281;DHT22;1652;51.318;6.202;2023-02-24T08:06:54;5.10;99.90
3281;DHT22;1652;51.318;6.202;2023-02-24T08:09:24;5.10;99.90
3281;DHT22;1652;51.318;6.202;2023-02-24T08:12:15;5.20;99.90
3281;DHT22;1652;51.318;6.202;2023-02-24T08:14:50;5.30;99.90
3281;DHT22;1652;51.318;6.202;2023-02-24T08:17:23;5.30;99.90
3281;DHT22;1652;51.318;6.202;2023-02-24T08:19:54;5.30;99.90
3281;DHT22;1652;51.318;6.202;2023-02-24T08:22:42;5.30;99.90
3281;DHT22;1652;51.318;6.202;2023-02-24T08:25:24;5.30;99.90
3281;DHT22;1652;51.318;6.202;2023-02-24T08:28:02;5.30;99.90
3281;DHT22;1652;51.318;6.202;2023-02-24T08:30:37;5.40;99.90
3281;DHT22;1652;51.318;6.202;2023-02-24T08:33:07;5.50;99.90
3281;DHT22;1652;51.318;6.202;2023-02-24T08:35:36;5.60;99.90
3281;DHT22;1652;51.318;6.202;2023-02-24T08:38:08;5.70;99.90
3281;DHT22;1652;51.318;6.202;2023-02-24T08:40:38;5.70;99.90
3281;DHT22;1652;51.318;6.202;2023-02-24T08:43:23;5.70;99.90
3281;DHT22;1652;51.318;6.202;2023-02-24T08:48:47;5.80;99.90
3281;DHT22;1652;51.318;6.202;2023-02-24T08:51:34;5.80;99.90
3281;DHT22;1652;51.318;6.202;2023-02-24T08:54:07;6.00;99.90
3281;DHT22;1652;51.318;6.202;2023-02-24T08:56:46;6.00;99.90
3281;DHT22;1652;51.318;6.202;2023-02-24T08:59:24;6.00;99.90
3281;DHT22;1652;51.318;6.202;2023-02-24T09:01:56;6.00;99.90
3281;DHT22;1652;51.318;6.202;2023-02-24T09:07:26;6.20;99.90
3281;DHT22;1652;51.318;6.202;2023-02-24T09:09:54;6.20;99.90
3281;DHT22;1652;51.318;6.202;2023-02-24T09:12:26;6.30;99.90
3281;DHT22;1652;51.318;6.202;2023-02-24T09:14:57;6.30;99.90
3281;DHT22;1652;51.318;6.202;2023-02-24T09:17:28;6.40;99.90
3281;DHT22;1652;51.318;6.202;2023-02-24T09:20:13;6.50;99.90
3281;DHT22;1652;51.318;6.202;2023-02-24T09:22:58;6.50;99.90
3281;DHT22;1652;51.318;6.202;2023-02-24T09:25:36;6.70;99.90
3281;DHT22;1652;51.318;6.202;2023-02-24T09:30:48;6.80;47.00
3281;DHT22;1652;51.318;6.202;2023-02-24T09:35:57;6.90;54.50
3281;DHT22;1652;51.318;6.202;2023-02-24T09:38:43;6.90;56.50
3281;DHT22;1652;51.318;6.202;2023-02-24T09:41:31;6.80;55.70
3281;DHT22;1652;51.318;6.202;2023-02-24T09:44:12;6.70;55.30
3281;DHT22;1652;51.318;6.202;2023-02-24T09:46:56;6.80;62.10
3281;DHT22;1652;51.318;6.202;2023-02-24T09:49:45;6.90;59.90
3281;DHT22;1652;51.318;6.202;2023-02-24T09:52:15;7.00;52.30
3281;DHT22;1652;51.318;6.202;2023-02-24T09:54:50;7.10;47.50
3281;DHT22;1652;51.318;6.202;2023-02-24T09:57:47;6.90;51.30
3281;DHT22;1652;51.318;6.202;2023-02-24T10:00:37;6.80;45.30
3281;DHT22;1652;51.318;6.202;2023-02-24T10:06:03;6.80;55.90
3281;DHT22;1652;51.318;6.202;2023-02-24T10:08:45;6.80;58.40
3281;DHT22;1652;51.318;6.202;2023-02-24T10:11:13;6.90;56.60
3281;DHT22;1652;51.318;6.202;2023-02-24T10:13:52;6.80;68.60
3281;DHT22;1652;51.318;6.202;2023-02-24T10:16:22;6.80;63.10
3281;DHT22;1652;51.318;6.202;2023-02-24T10:19:04;6.70;56.10
3281;DHT22;1652;51.318;6.202;2023-02-24T10:22:04;6.60;66.90
3281;DHT22;1652;51.318;6.202;2023-02-24T10:25:00;6.60;64.30
3281;DHT22;1652;51.318;6.202;2023-02-24T10:27:44;6.50;56.00
3281;DHT22;1652;51.318;6.202;2023-02-24T10:32:56;6.70;60.40
3281;DHT22;1652;51.318;6.202;2023-02-24T10:35:27;6.60;56.60
3281;DHT22;1652;51.318;6.202;2023-02-24T10:38:02;6.70;53.10
3281;DHT22;1652;51.318;6.202;2023-02-24T10:40:41;6.60;57.80
3281;DHT22;1652;51.318;6.202;2023-02-24T10:43:17;6.70;62.50
3281;DHT22;1652;51.318;6.202;2023-02-24T10:45:45;6.80;71.00
3281;DHT22;1652;51.318;6.202;2023-02-24T10:48:26;6.80;76.20
3281;DHT22;1652;51.318;6.202;2023-02-24T10:51:13;6.70;89.50
3281;DHT22;1652;51.318;6.202;2023-02-24T10:53:49;6.70;78.40
3281;DHT22;1652;51.318;6.202;2023-02-24T10:56:40;6.60;86.30
3281;DHT22;1652;51.318;6.202;2023-02-24T10:59:13;6.60;92.80
3281;DHT22;1652;51.318;6.202;2023-02-24T11:02:18;6.60;99.90
3281;DHT22;1652;51.318;6.202;2023-02-24T11:04:56;6.60;99.90
3281;DHT22;1652;51.318;6.202;2023-02-24T11:07:24;6.50;99.90
3281;DHT22;1652;51.318;6.202;2023-02-24T11:10:08;6.50;99.90
3281;DHT22;1652;51.318;6.202;2023-02-24T11:12:47;6.40;99.90
3281;DHT22;1652;51.318;6.202;2023-02-24T11:15:41;6.30;99.90
3281;DHT22;1652;51.318;6.202;2023-02-24T11:18:29;6.30;99.90
3281;DHT22;1652;51.318;6.202;2023-02-24T11:21:08;6.20;99.90
3281;DHT22;1652;51.318;6.202;2023-02-24T11:23:44;6.30;99.90
3281;DHT22;1652;51.318;6.202;2023-02-24T11:26:21;6.40;99.90
3281;DHT22;1652;51.318;6.202;2023-02-24T11:45:29;6.40;99.90
3281;DHT22;1652;51.318;6.202;2023-02-24T11:50:46;6.40;99.90
3281;DHT22;1652;51.318;6.202;2023-02-24T12:01:45;6.00;99.90
3281;DHT22;1652;51.318;6.202;2023-02-24T12:09:54;5.90;99.90
3281;DHT22;1652;51.318;6.202;2023-02-24T12:20:51;5.90;99.90
3281;DHT22;1652;51.318;6.202;2023-02-24T12:23:39;5.80;99.90
3281;DHT22;1652;51.318;6.202;2023-02-24T12:45:12;6.00;99.90
3281;DHT22;1652;51.318;6.202;2023-02-24T12:54:13;6.10;99.90
3281;DHT22;1652;51.318;6.202;2023-02-24T12:56:51;6.20;99.90
3281;DHT22;1652;51.318;6.202;2023-02-24T12:59:26;6.30;99.90
3281;DHT22;1652;51.318;6.202;2023-02-24T13:12:29;6.10;99.90
3281;DHT22;1652;51.318;6.202;2023-02-24T13:14:58;6.20;99.90
3281;DHT22;1652;51.318;6.202;2023-02-24T13:17:25;6.20;99.90
3281;DHT22;1652;51.318;6.202;2023-02-24T13:19:54;6.20;99.90
3281;DHT22;1652;51.318;6.202;2023-02-24T13:22:25;6.20;99.90
3281;DHT22;1652;51.318;6.202;2023-02-24T13:27:38;6.10;99.90
3281;DHT22;1652;51.318;6.202;2023-02-24T13:30:24;6.10;99.90
3281;DHT22;1652;51.318;6.202;2023-02-24T13:35:45;6.00;99.90
3281;DHT22;1652;51.318;6.202;2023-02-24T13:38:23;6.00;99.90
3281;DHT22;1652;51.318;6.202;2023-02-24T13:40:51;6.00;99.90
3281;DHT22;1652;51.318;6.202;2023-02-24T13:43:24;6.00;99.90
3281;DHT22;1652;51.318;6.202;2023-02-24T13:45:57;6.00;99.90
3281;DHT22;1652;51.318;6.202;2023-02-24T13:56:54;5.90;99.90
3281;DHT22;1652;51.318;6.202;2023-02-24T14:02:19;5.80;99.90
3281;DHT22;1652;51.318;6.202;2023-02-24T14:07:26;5.80;99.90
3281;DHT22;1652;51.318;6.202;2023-02-24T14:09:59;5.90;99.90
3281;DHT22;1652;51.318;6.202;2023-02-24T14:12:35;5.90;99.90
3281;DHT22;1652;51.318;6.202;2023-02-24T14:15:03;5.90;99.90
3281;DHT22;1652;51.318;6.202;2023-02-24T14:17:33;5.90;99.90
3281;DHT22;1652;51.318;6.202;2023-02-24T14:22:49;5.90;99.90
3281;DHT22;1652;51.318;6.202;2023-02-24T14:25:16;5.90;99.90
3281;DHT22;1652;51.318;6.202;2023-02-24T14:27:47;6.00;99.90
3281;DHT22;1652;51.318;6.202;2023-02-24T14:30:37;6.00;99.90
3281;DHT22;1652;51.318;6.202;2023-02-24T14:33:06;6.10;99.90
3281;DHT22;1652;51.318;6.202;2023-02-24T14:35:46;6.10;99.90
3281;DHT22;1652;51.318;6.202;2023-02-24T14:38:34;6.20;99.90
3281;DHT22;1652;51.318;6.202;2023-02-24T14:41:06;6.30;99.90
3281;DHT22;1652;51.318;6.202;2023-02-24T14:43:40;6.30;99.90
3281;DHT22;1652;51.318;6.202;2023-02-24T14:46:07;6.40;99.90
3281;DHT22;1652;51.318;6.202;2023-02-24T14:48:34;6.40;99.90
3281;DHT22;1652;51.318;6.202;2023-02-24T14:51:09;6.30;99.90
3281;DHT22;1652;51.318;6.202;2023-02-24T14:53:45;6.30;99.90
3281;DHT22;1652;51.318;6.202;2023-02-24T14:56:14;6.20;99.90
3281;DHT22;1652;51.318;6.202;2023-02-24T14:58:48;6.30;99.90
3281;DHT22;1652;51.318;6.202;2023-02-24T15:01:29;6.20;99.90
3281;DHT22;1652;51.318;6.202;2023-02-24T15:03:59;6.20;99.90
3281;DHT22;1652;51.318;6.202;2023-02-24T15:06:31;6.30;99.90
3281;DHT22;1652;51.318;6.202;2023-02-24T15:09:02;6.30;99.90
3281;DHT22;1652;51.318;6.202;2023-02-24T15:11:31;6.30;99.90
3281;DHT22;1652;51.318;6.202;2023-02-24T15:14:03;6.30;99.90
3281;DHT22;1652;51.318;6.202;2023-02-24T15:16:40;6.30;99.90
3281;DHT22;1652;51.318;6.202;2023-02-24T15:19:30;6.20;99.90
3281;DHT22;1652;51.318;6.202;2023-02-24T15:21:58;6.20;99.90
3281;DHT22;1652;51.318;6.202;2023-02-24T15:24:33;6.20;99.90
3281;DHT22;1652;51.318;6.202;2023-02-24T15:29:41;6.40;99.90
3281;DHT22;1652;51.318;6.202;2023-02-24T15:32:18;6.50;99.90
3281;DHT22;1652;51.318;6.202;2023-02-24T15:34:47;6.50;99.90
3281;DHT22;1652;51.318;6.202;2023-02-24T15:37:22;6.60;99.90
3281;DHT22;1652;51.318;6.202;2023-02-24T15:39:51;6.50;99.90
3281;DHT22;1652;51.318;6.202;2023-02-24T15:42:26;6.60;99.90
3281;DHT22;1652;51.318;6.202;2023-02-24T15:44:56;6.70;99.90
3281;DHT22;1652;51.318;6.202;2023-02-24T15:47:29;6.70;99.90
3281;DHT22;1652;51.318;6.202;2023-02-24T15:49:58;6.70;99.90
3281;DHT22;1652;51.318;6.202;2023-02-24T15:52:27;6.70;99.90
3281;DHT22;1652;51.318;6.202;2023-02-24T15:54:55;6.70;99.90
3281;DHT22;1652;51.318;6.202;2023-02-24T15:57:23;6.70;99.90
3281;DHT22;1652;51.318;6.202;2023-02-24T15:59:51;6.70;99.90
3281;DHT22;1652;51.318;6.202;2023-02-24T16:02:19;6.70;99.90
3281;DHT22;1652;51.318;6.202;2023-02-24T16:07:22;6.70;99.90
3281;DHT22;1652;51.318;6.202;2023-02-24T16:09:51;6.60;99.90
3281;DHT22;1652;51.318;6.202;2023-02-24T16:12:26;6.60;99.90
3281;DHT22;1652;51.318;6.202;2023-02-24T16:14:54;6.50;99.90
3281;DHT22;1652;51.318;6.202;2023-02-24T16:17:40;6.60;99.90
3281;DHT22;1652;51.318;6.202;2023-02-24T16:20:16;6.60;99.90
3281;DHT22;1652;51.318;6.202;2023-02-24T16:22:43;6.60;99.90
3281;DHT22;1652;51.318;6.202;2023-02-24T16:25:14;6.70;99.90
3281;DHT22;1652;51.318;6.202;2023-02-24T16:27:42;6.70;99.90
3281;DHT22;1652;51.318;6.202;2023-02-24T16:30:15;6.70;99.90
3281;DHT22;1652;51.318;6.202;2023-02-24T16:32:48;6.70;99.90
3281;DHT22;1652;51.318;6.202;2023-02-24T16:35:15;6.70;99.90
3281;DHT22;1652;51.318;6.202;2023-02-24T16:37:45;6.70;99.90
3281;DHT22;1652;51.318;6.202;2023-02-24T16:40:33;6.60;99.90
3281;DHT22;1652;51.318;6.202;2023-02-24T16:43:03;6.60;99.90
3281;DHT22;1652;51.318;6.202;2023-02-24T16:45:30;6.60;99.90
3281;DHT22;1652;51.318;6.202;2023-02-24T16:47:58;6.60;99.90
3281;DHT22;1652;51.318;6.202;2023-02-24T16:50:34;6.70;99.90
3281;DHT22;1652;51.318;6.202;2023-02-24T16:53:02;6.70;99.90
3281;DHT22;1652;51.318;6.202;2023-02-24T16:55:29;6.70;99.90
3281;DHT22;1652;51.318;6.202;2023-02-24T16:57:56;6.70;99.90
3281;DHT22;1652;51.318;6.202;2023-02-24T17:00:23;6.50;99.90
3281;DHT22;1652;51.318;6.202;2023-02-24T17:02:50;6.40;99.90
3281;DHT22;1652;51.318;6.202;2023-02-24T17:05:23;6.30;99.90
3281;DHT22;1652;51.318;6.202;2023-02-24T17:07:52;6.10;99.90
3281;DHT22;1652;51.318;6.202;2023-02-24T17:10:20;6.10;99.90
3281;DHT22;1652;51.318;6.202;2023-02-24T17:12:47;6.10;99.90
3281;DHT22;1652;51.318;6.202;2023-02-24T17:15:17;6.10;99.90
3281;DHT22;1652;51.318;6.202;2023-02-24T17:17:45;6.10;99.90
3281;DHT22;1652;51.318;6.202;2023-02-24T17:20:14;6.00;99.90
3281;DHT22;1652;51.318;6.202;2023-02-24T17:22:42;6.10;99.90
3281;DHT22;1652;51.318;6.202;2023-02-24T17:25:15;6.10;99.90
3281;DHT22;1652;51.318;6.202;2023-02-24T17:27:44;6.20;99.90
3281;DHT22;1652;51.318;6.202;2023-02-24T17:30:16;6.20;99.90
3281;DHT22;1652;51.318;6.202;2023-02-24T17:32:43;6.20;99.90
3281;DHT22;1652;51.318;6.202;2023-02-24T17:35:13;6.20;99.90
3281;DHT22;1652;51.318;6.202;2023-02-24T17:37:40;6.20;99.90
3281;DHT22;1652;51.318;6.202;2023-02-24T17:40:07;6.20;99.90
3281;DHT22;1652;51.318;6.202;2023-02-24T17:42:34;6.20;99.90
3281;DHT22;1652;51.318;6.202;2023-02-24T17:45:01;6.20;99.90
3281;DHT22;1652;51.318;6.202;2023-02-24T17:47:30;6.20;99.90
3281;DHT22;1652;51.318;6.202;2023-02-24T17:49:57;6.20;99.90
3281;DHT22;1652;51.318;6.202;2023-02-24T17:52:24;6.10;99.90
3281;DHT22;1652;51.318;6.202;2023-02-24T17:54:51;6.10;99.90
3281;DHT22;1652;51.318;6.202;2023-02-24T17:57:17;6.10;99.90
3281;DHT22;1652;51.318;6.202;2023-02-24T17:59:44;6.10;99.90
3281;DHT22;1652;51.318;6.202;2023-02-24T18:02:13;6.20;99.90
3281;DHT22;1652;51.318;6.202;2023-02-24T18:07:12;6.10;99.90
3281;DHT22;1652;51.318;6.202;2023-02-24T18:09:39;6.10;99.90
3281;DHT22;1652;51.318;6.202;2023-02-24T18:12:06;6.10;99.90
3281;DHT22;1652;51.318;6.202;2023-02-24T18:14:33;6.20;99.90
3281;DHT22;1652;51.318;6.202;2023-02-24T18:17:00;6.10;99.90
3281;DHT22;1652;51.318;6.202;2023-02-24T18:19:27;6.20;99.90
3281;DHT22;1652;51.318;6.202;2023-02-24T18:21:55;6.10;99.90
3281;DHT22;1652;51.318;6.202;2023-02-24T18:24:22;6.10;99.90
3281;DHT22;1652;51.318;6.202;2023-02-24T18:26:49;6.20;99.90
3281;DHT22;1652;51.318;6.202;2023-02-24T18:29:16;6.20;99.90
3281;DHT22;1652;51.318;6.202;2023-02-24T18:31:43;6.20;99.90
3281;DHT22;1652;51.318;6.202;2023-02-24T18:34:10;6.10;99.90
3281;DHT22;1652;51.318;6.202;2023-02-24T18:36:37;6.20;99.90
3281;DHT22;1652;51.318;6.202;2023-02-24T18:39:03;6.20;99.90
3281;DHT22;1652;51.318;6.202;2023-02-24T18:41:31;6.10;99.90
3281;DHT22;1652;51.318;6.202;2023-02-24T18:43:57;6.10;99.90
3281;DHT22;1652;51.318;6.202;2023-02-24T18:46:25;5.80;99.90
3281;DHT22;1652;51.318;6.202;2023-02-24T18:48:53;5.70;99.90
3281;DHT22;1652;51.318;6.202;2023-02-24T18:51:22;5.60;99.90
3281;DHT22;1652;51.318;6.202;2023-02-24T18:53:52;5.50;99.90
3281;DHT22;1652;51.318;6.202;2023-02-24T18:56:21;5.60;99.90
3281;DHT22;1652;51.318;6.202;2023-02-24T18:58:49;5.50;99.90
3281;DHT22;1652;51.318;6.202;2023-02-24T19:01:35;5.60;99.90
3281;DHT22;1652;51.318;6.202;2023-02-24T19:04:05;5.60;99.90
3281;DHT22;1652;51.318;6.202;2023-02-24T19:06:33;5.70;99.90
3281;DHT22;1652;51.318;6.202;2023-02-24T19:09:07;5.70;99.90
3281;DHT22;1652;51.318;6.202;2023-02-24T19:11:37;5.70;99.90
3281;DHT22;1652;51.318;6.202;2023-02-24T19:14:05;5.70;99.90
3281;DHT22;1652;51.318;6.202;2023-02-24T19:16:33;5.70;99.90
3281;DHT22;1652;51.318;6.202;2023-02-24T19:19:00;5.70;99.90
3281;DHT22;1652;51.318;6.202;2023-02-24T19:21:28;5.70;99.90
3281;DHT22;1652;51.318;6.202;2023-02-24T19:24:02;5.70;99.90
3281;DHT22;1652;51.318;6.202;2023-02-24T19:26:33;5.70;99.90
3281;DHT22;1652;51.318;6.202;2023-02-24T19:29:03;5.70;99.90